SCYL weather

Licán Airport
Puyehue, Los Ríos Region, Chile

Public forecast

Using degrees Celsius for public forecast. Weather courtesy of forecast.io.

METAR (pilot weather report)

Closest report is Cañal Bajo Carlos - Hott Siebert Airport, 29.7 nm (54.9 km) W. Retrieved 2019/03/22 14:00 UTC (35 minutes ago):

SCJO 221400Z 29003KT 9999 SCT035 BKN040 15/12 Q1019

TAF (pilot weather forecast)

Closest forecast is Cañal Bajo Carlos - Hott Siebert Airport, 29.7 nm (54.9 km) W. Retrieved 2019/03/22 12:00 UTC (3 hours ago):

TAF SCJO 221023Z 2212/2300 VRB02KT 9999 BKN020 OVC040 TN12/2212Z TX18/2219Z BECMG 2218/2220 28005KT SCT040